Time;durP1;ratioP1;P1;durP2;ratioP2;P2;SDS_P1;SDS_P2;PMS_P1;PMS_P2;Temp;Humidity;BMP_temperature;BMP_pressure;BME280_temperature;BME280_humidity;BME280_pressure;Samples;Min_cycle;Max_cycle;Signal;HPM_P1;HPM_P2
2021/12/20 00:00:00;;;;;;;23.37;10.53;;;;;;;;;;5056696;28;20392;-82
2021/12/20 00:02:25;;;;;;;19.80;10.00;;;;;;;;;;5052937;28;20020;-82
2021/12/20 00:04:52;;;;;;;27.80;10.57;;;;;;;;;;5059577;28;20031;-82
2021/12/20 00:07:18;;;;;;;20.87;10.30;;;;;;;;;;5054716;28;20025;-82
2021/12/20 00:09:43;;;;;;;26.67;9.90;;;;;;;;;;5062801;28;20078;-82
2021/12/20 00:12:09;;;;;;;24.53;9.80;;;;;;;;;;5059208;28;20048;-82
2021/12/20 00:14:34;;;;;;;25.07;10.63;;;;;;;;;;5059811;28;20032;-82
2021/12/20 00:16:59;;;;;;;24.90;10.57;;;;;;;;;;5060323;28;20609;-81
2021/12/20 00:19:25;;;;;;;24.27;10.70;;;;;;;;;;5053525;28;20476;-82
2021/12/20 00:21:51;;;;;;;25.27;10.63;;;;;;;;;;5085780;28;20017;-81
2021/12/20 00:24:18;;;;;;;32.67;11.53;;;;;;;;;;5062010;28;20469;-81
2021/12/20 00:26:43;;;;;;;23.63;9.70;;;;;;;;;;5052698;28;20059;-82
2021/12/20 00:29:09;;;;;;;28.23;11.13;;;;;;;;;;5086976;28;20052;-82
2021/12/20 00:31:34;;;;;;;27.17;11.53;;;;;;;;;;5063550;28;20107;-81
2021/12/20 00:33:59;;;;;;;20.77;10.57;;;;;;;;;;5060665;28;20047;-81
2021/12/20 00:36:26;;;;;;;21.70;9.60;;;;;;;;;;5054045;28;20025;-82
2021/12/20 00:41:35;;;;;;;27.50;10.57;;;;;;;;;;5061837;28;20748;-82
2021/12/20 00:44:01;;;;;;;26.47;11.10;;;;;;;;;;5076419;28;20014;-81
2021/12/20 00:46:26;;;;;;;25.67;10.80;;;;;;;;;;5059662;28;20460;-81
2021/12/20 00:48:51;;;;;;;28.67;11.57;;;;;;;;;;5052555;28;20028;-82
2021/12/20 00:51:17;;;;;;;32.53;11.93;;;;;;;;;;5060474;28;20051;-81
2021/12/20 00:53:42;;;;;;;24.13;10.23;;;;;;;;;;5053150;28;20016;-82
2021/12/20 00:56:07;;;;;;;24.47;10.50;;;;;;;;;;5052156;28;20028;-81
2021/12/20 00:58:32;;;;;;;20.00;9.60;;;;;;;;;;5077260;28;20029;-82
2021/12/20 01:00:58;;;;;;;20.23;9.50;;;;;;;;;;5083693;28;20415;-82
2021/12/20 01:03:24;;;;;;;20.90;8.80;;;;;;;;;;5056619;28;20457;-82
2021/12/20 01:05:49;;;;;;;25.17;10.30;;;;;;;;;;5063540;28;20027;-82
2021/12/20 01:08:15;;;;;;;23.57;10.33;;;;;;;;;;5063491;28;20021;-82
2021/12/20 01:10:44;;;;;;;22.87;9.47;;;;;;;;;;5060973;28;20544;-82
2021/12/20 01:13:09;;;;;;;23.63;9.97;;;;;;;;;;5054835;28;20047;-82
2021/12/20 01:15:37;;;;;;;19.70;9.47;;;;;;;;;;5053657;28;20044;-82
2021/12/20 01:18:03;;;;;;;21.37;9.77;;;;;;;;;;5058174;28;20131;-81
2021/12/20 01:20:28;;;;;;;19.90;8.77;;;;;;;;;;5059100;28;20518;-82
2021/12/20 01:22:54;;;;;;;21.57;9.67;;;;;;;;;;5085203;28;20009;-82
2021/12/20 01:25:20;;;;;;;22.67;8.87;;;;;;;;;;5058456;28;20108;-82
2021/12/20 01:27:45;;;;;;;24.27;9.43;;;;;;;;;;5086448;28;20052;-82
2021/12/20 01:30:11;;;;;;;23.77;9.43;;;;;;;;;;5053173;28;20048;-82
2021/12/20 01:32:37;;;;;;;23.13;9.93;;;;;;;;;;5056503;28;20476;-82
2021/12/20 01:35:03;;;;;;;21.23;9.20;;;;;;;;;;5084208;28;20104;-82
2021/12/20 01:37:28;;;;;;;16.70;9.03;;;;;;;;;;5051628;28;20051;-82
2021/12/20 01:39:58;;;;;;;19.63;9.43;;;;;;;;;;5059093;28;20020;-82
2021/12/20 01:42:23;;;;;;;23.07;9.27;;;;;;;;;;5051395;28;20017;-81
2021/12/20 01:44:49;;;;;;;21.23;8.20;;;;;;;;;;5057443;28;20021;-82
2021/12/20 01:47:15;;;;;;;16.97;8.03;;;;;;;;;;5052235;28;20457;-82
2021/12/20 01:49:57;;;;;;;20.93;8.40;;;;;;;;;;5053952;28;20029;-81
2021/12/20 01:52:26;;;;;;;18.40;7.15;;;;;;;;;;5059191;28;20021;-82
2021/12/20 01:54:51;;;;;;;14.37;5.80;;;;;;;;;;5051226;28;20105;-81
2021/12/20 01:57:16;;;;;;;19.53;7.03;;;;;;;;;;5051489;28;20468;-82
2021/12/20 01:59:42;;;;;;;19.27;5.90;;;;;;;;;;5082997;28;20045;-81
2021/12/20 02:02:08;;;;;;;12.17;5.87;;;;;;;;;;5084082;28;20021;-82
2021/12/20 02:04:43;;;;;;;16.60;6.17;;;;;;;;;;5084057;28;20399;-82
2021/12/20 02:07:08;;;;;;;14.17;6.00;;;;;;;;;;5076469;28;20544;-81
2021/12/20 02:09:34;;;;;;;18.63;6.03;;;;;;;;;;5060465;28;20146;-82
2021/12/20 02:11:59;;;;;;;14.17;5.80;;;;;;;;;;5059307;28;20201;-81
2021/12/20 02:14:24;;;;;;;13.57;4.70;;;;;;;;;;5056965;28;20117;-82
2021/12/20 02:16:49;;;;;;;13.50;5.10;;;;;;;;;;5055868;28;20029;-82
2021/12/20 02:19:16;;;;;;;16.90;4.87;;;;;;;;;;5083595;28;20028;-82
2021/12/20 02:21:44;;;;;;;13.30;5.00;;;;;;;;;;5052363;28;20100;-82
2021/12/20 02:24:09;;;;;;;12.87;4.90;;;;;;;;;;5059470;28;20024;-82
2021/12/20 02:26:36;;;;;;;13.43;4.83;;;;;;;;;;5062500;28;20526;-82
2021/12/20 02:29:05;;;;;;;15.90;5.30;;;;;;;;;;5060716;28;20027;-81
2021/12/20 02:37:18;;;;;;;11.57;4.67;;;;;;;;;;5065628;28;20104;-82
2021/12/20 02:39:43;;;;;;;11.53;4.43;;;;;;;;;;5062662;28;20773;-82
2021/12/20 02:42:12;;;;;;;8.13;3.47;;;;;;;;;;5062455;28;20044;-82
2021/12/20 02:44:44;;;;;;;12.47;3.47;;;;;;;;;;5084214;28;20021;-82
2021/12/20 02:47:15;;;;;;;8.48;3.40;;;;;;;;;;5087773;28;20047;-82
2021/12/20 02:49:41;;;;;;;9.17;3.63;;;;;;;;;;5087965;28;20033;-81
2021/12/20 02:52:07;;;;;;;12.10;3.70;;;;;;;;;;5089326;28;20495;-82
2021/12/20 02:54:33;;;;;;;13.70;4.37;;;;;;;;;;5057921;28;20024;-82
2021/12/20 02:56:58;;;;;;;17.40;4.93;;;;;;;;;;5055956;28;20514;-81
2021/12/20 02:59:24;;;;;;;12.83;4.53;;;;;;;;;;5089637;28;20554;-82
2021/12/20 03:01:51;;;;;;;11.40;4.10;;;;;;;;;;5074833;28;20016;-82
2021/12/20 03:04:17;;;;;;;11.93;4.23;;;;;;;;;;5061765;28;20079;-82
2021/12/20 03:06:45;;;;;;;12.60;4.27;;;;;;;;;;5055920;28;20013;-82
2021/12/20 03:09:13;;;;;;;15.37;4.70;;;;;;;;;;5054246;28;20025;-81
2021/12/20 03:11:38;;;;;;;13.27;4.33;;;;;;;;;;5055588;28;20078;-82
2021/12/20 03:14:17;;;;;;;14.17;3.97;;;;;;;;;;5058266;28;20458;-82
2021/12/20 03:16:43;;;;;;;19.63;4.47;;;;;;;;;;5070057;28;20021;-82
2021/12/20 03:19:08;;;;;;;10.47;4.27;;;;;;;;;;5054483;28;20116;-82
2021/12/20 03:21:33;;;;;;;11.10;4.20;;;;;;;;;;5061349;28;20025;-81
2021/12/20 03:23:59;;;;;;;15.63;3.90;;;;;;;;;;5062992;28;20021;-81
2021/12/20 03:26:24;;;;;;;16.50;4.77;;;;;;;;;;5087169;28;20024;-82
2021/12/20 03:28:51;;;;;;;13.33;4.10;;;;;;;;;;5063085;28;20021;-81
2021/12/20 03:31:16;;;;;;;11.70;4.20;;;;;;;;;;5054714;28;20025;-81
2021/12/20 03:33:42;;;;;;;14.53;5.23;;;;;;;;;;5085755;28;20036;-82
2021/12/20 03:36:07;;;;;;;9.83;3.80;;;;;;;;;;5086674;28;20035;-82
2021/12/20 03:38:32;;;;;;;14.27;3.80;;;;;;;;;;5063420;28;20104;-82
2021/12/20 03:40:57;;;;;;;12.87;3.60;;;;;;;;;;5086563;28;20115;-82
2021/12/20 03:43:30;;;;;;;18.87;4.40;;;;;;;;;;5050581;28;20013;-81
2021/12/20 03:45:57;;;;;;;8.83;3.53;;;;;;;;;;5054036;28;20137;-82
2021/12/20 03:48:22;;;;;;;14.60;4.10;;;;;;;;;;5063153;28;20050;-82
2021/12/20 03:50:48;;;;;;;14.20;3.40;;;;;;;;;;5060497;28;20090;-82
2021/12/20 03:53:13;;;;;;;13.60;3.80;;;;;;;;;;5057063;28;20033;-82
2021/12/20 03:55:38;;;;;;;10.80;3.10;;;;;;;;;;5058630;28;20025;-82
2021/12/20 03:58:04;;;;;;;15.40;3.67;;;;;;;;;;5055989;28;20144;-82
2021/12/20 04:00:29;;;;;;;10.77;2.63;;;;;;;;;;5053884;28;20366;-82
2021/12/20 04:02:55;;;;;;;17.73;2.53;;;;;;;;;;5062442;28;20381;-82
2021/12/20 04:05:20;;;;;;;13.43;2.40;;;;;;;;;;5053235;28;20025;-81
2021/12/20 04:07:45;;;;;;;12.87;3.00;;;;;;;;;;5061541;28;20462;-82
2021/12/20 04:10:10;;;;;;;7.13;2.23;;;;;;;;;;5062603;28;20028;-82
2021/12/20 04:12:36;;;;;;;11.20;2.60;;;;;;;;;;5060976;28;20124;-82
2021/12/20 04:15:01;;;;;;;14.53;2.13;;;;;;;;;;5082947;28;20035;-81
2021/12/20 04:17:26;;;;;;;12.73;1.83;;;;;;;;;;5055157;28;20029;-81
2021/12/20 04:19:51;;;;;;;9.30;1.97;;;;;;;;;;5058376;28;20383;-82
2021/12/20 04:22:19;;;;;;;14.10;2.40;;;;;;;;;;5052775;28;20013;-82
2021/12/20 04:24:44;;;;;;;8.93;1.70;;;;;;;;;;5085915;28;20021;-82
2021/12/20 04:27:10;;;;;;;8.77;2.17;;;;;;;;;;5060785;28;20016;-82
2021/12/20 04:29:35;;;;;;;11.63;2.40;;;;;;;;;;5060789;28;20021;-82
2021/12/20 04:32:00;;;;;;;10.43;1.97;;;;;;;;;;5085579;28;20048;-82
2021/12/20 04:34:25;;;;;;;16.37;2.03;;;;;;;;;;5085659;28;20036;-82
2021/12/20 04:36:51;;;;;;;11.30;2.03;;;;;;;;;;5061845;28;20021;-82
2021/12/20 04:39:20;;;;;;;9.03;1.80;;;;;;;;;;5086228;28;20036;-82
2021/12/20 04:41:45;;;;;;;12.93;2.03;;;;;;;;;;5045318;28;20388;-82
2021/12/20 04:44:11;;;;;;;10.73;2.10;;;;;;;;;;5049553;28;20116;-82
2021/12/20 04:46:36;;;;;;;13.40;2.27;;;;;;;;;;5054204;28;20057;-81
2021/12/20 04:49:02;;;;;;;17.83;1.87;;;;;;;;;;5063917;28;20052;-82
2021/12/20 04:51:27;;;;;;;14.37;2.53;;;;;;;;;;5062346;28;20028;-82
2021/12/20 04:53:52;;;;;;;16.30;2.20;;;;;;;;;;5085370;28;20033;-81
2021/12/20 04:56:17;;;;;;;16.73;2.07;;;;;;;;;;5061417;28;20016;-82
2021/12/20 04:58:43;;;;;;;15.73;2.07;;;;;;;;;;5060155;28;20020;-81
2021/12/20 05:01:08;;;;;;;18.50;2.00;;;;;;;;;;5051932;28;20403;-82
2021/12/20 05:03:33;;;;;;;18.47;2.00;;;;;;;;;;5086111;28;20021;-81
2021/12/20 05:05:58;;;;;;;9.37;1.60;;;;;;;;;;5063532;28;20020;-82
2021/12/20 05:08:32;;;;;;;22.07;2.20;;;;;;;;;;5055175;28;20503;-82
2021/12/20 05:10:57;;;;;;;9.53;2.07;;;;;;;;;;5077937;28;20167;-81
2021/12/20 05:13:23;;;;;;;21.43;2.20;;;;;;;;;;5084569;28;20108;-82
2021/12/20 05:15:48;;;;;;;25.30;2.07;;;;;;;;;;5050021;28;20111;-82
2021/12/20 05:18:13;;;;;;;9.97;1.77;;;;;;;;;;5084677;28;20468;-82
2021/12/20 05:20:38;;;;;;;8.53;1.50;;;;;;;;;;5085114;28;20594;-82
2021/12/20 05:23:04;;;;;;;9.90;1.50;;;;;;;;;;5059975;28;20573;-81
2021/12/20 05:25:29;;;;;;;10.77;1.67;;;;;;;;;;5084155;28;20040;-82
2021/12/20 05:27:55;;;;;;;7.63;1.53;;;;;;;;;;5059436;28;20047;-82
2021/12/20 05:30:20;;;;;;;18.93;1.63;;;;;;;;;;5081614;28;20104;-82
2021/12/20 05:32:46;;;;;;;10.30;1.77;;;;;;;;;;5083902;28;20100;-81
2021/12/20 05:35:12;;;;;;;10.33;1.90;;;;;;;;;;5053199;28;20020;-82
2021/12/20 05:37:38;;;;;;;15.17;2.20;;;;;;;;;;5060331;28;20029;-81
2021/12/20 05:40:04;;;;;;;13.73;1.90;;;;;;;;;;5063020;28;20020;-82
2021/12/20 05:42:29;;;;;;;17.33;1.70;;;;;;;;;;5055451;28;20029;-81
2021/12/20 05:44:55;;;;;;;14.37;2.20;;;;;;;;;;5090473;28;20021;-82
2021/12/20 05:47:22;;;;;;;14.10;1.67;;;;;;;;;;5063133;28;20050;-82
2021/12/20 05:49:47;;;;;;;12.20;1.87;;;;;;;;;;5061065;28;20056;-81
2021/12/20 05:52:12;;;;;;;17.77;2.07;;;;;;;;;;5084512;28;20059;-82
2021/12/20 05:54:37;;;;;;;12.33;1.93;;;;;;;;;;5075933;28;20053;-82
2021/12/20 05:57:03;;;;;;;14.23;1.90;;;;;;;;;;5084198;28;20472;-81
2021/12/20 05:59:29;;;;;;;12.20;1.67;;;;;;;;;;5092579;28;20029;-82
2021/12/20 06:01:54;;;;;;;13.53;1.60;;;;;;;;;;5058489;28;20412;-82
2021/12/20 06:04:19;;;;;;;12.50;1.37;;;;;;;;;;5084086;28;20025;-82
2021/12/20 06:06:44;;;;;;;15.90;1.53;;;;;;;;;;5084468;28;20021;-82
2021/12/20 06:09:10;;;;;;;7.97;1.33;;;;;;;;;;5062863;28;20035;-81
2021/12/20 06:11:35;;;;;;;26.33;1.77;;;;;;;;;;5057676;28;20048;-82
2021/12/20 06:14:00;;;;;;;21.07;1.73;;;;;;;;;;5085472;28;20060;-82
2021/12/20 06:16:25;;;;;;;16.57;2.13;;;;;;;;;;5060529;28;20384;-81
2021/12/20 06:18:51;;;;;;;11.70;1.90;;;;;;;;;;5065462;28;20111;-82
2021/12/20 06:21:17;;;;;;;9.80;1.30;;;;;;;;;;5063297;28;20025;-82
2021/12/20 06:23:43;;;;;;;15.43;1.80;;;;;;;;;;5088218;28;20017;-82
2021/12/20 06:26:08;;;;;;;16.07;2.03;;;;;;;;;;5057452;28;20112;-81
2021/12/20 06:28:33;;;;;;;12.60;2.23;;;;;;;;;;5066346;28;20039;-82
2021/12/20 06:30:58;;;;;;;22.70;1.77;;;;;;;;;;5056569;28;20029;-81
2021/12/20 06:33:23;;;;;;;10.27;1.60;;;;;;;;;;5081906;28;20033;-82
2021/12/20 06:35:49;;;;;;;13.63;1.90;;;;;;;;;;5055092;28;20035;-82
2021/12/20 06:38:19;;;;;;;21.70;1.60;;;;;;;;;;5058265;28;20111;-82
2021/12/20 06:40:45;;;;;;;15.37;1.83;;;;;;;;;;5058862;28;20017;-82
2021/12/20 06:43:10;;;;;;;16.57;2.03;;;;;;;;;;5099089;28;20033;-81
2021/12/20 06:45:36;;;;;;;19.33;2.10;;;;;;;;;;5060967;28;20021;-82
2021/12/20 06:48:01;;;;;;;14.80;1.47;;;;;;;;;;5064683;28;20032;-82
2021/12/20 06:50:26;;;;;;;14.93;2.00;;;;;;;;;;5087615;28;20104;-82
2021/12/20 06:52:51;;;;;;;14.97;1.90;;;;;;;;;;5057756;28;20017;-81
2021/12/20 06:55:17;;;;;;;24.13;1.97;;;;;;;;;;5060644;28;20013;-82
2021/12/20 06:57:42;;;;;;;26.63;2.40;;;;;;;;;;5054780;28;20013;-81
2021/12/20 07:00:07;;;;;;;26.60;2.07;;;;;;;;;;5052766;28;20029;-81
2021/12/20 07:02:33;;;;;;;14.70;1.47;;;;;;;;;;5053244;28;20021;-82
2021/12/20 07:04:58;;;;;;;18.83;2.03;;;;;;;;;;5054142;28;20028;-82
2021/12/20 07:07:23;;;;;;;18.97;1.70;;;;;;;;;;5057736;28;20009;-81
2021/12/20 07:09:48;;;;;;;20.73;2.27;;;;;;;;;;5051289;28;20420;-80
2021/12/20 07:12:14;;;;;;;16.93;1.80;;;;;;;;;;5053326;28;20534;-82
2021/12/20 07:14:40;;;;;;;13.07;1.77;;;;;;;;;;5075800;28;20104;-80
2021/12/20 07:17:05;;;;;;;13.63;1.80;;;;;;;;;;5052817;28;20023;-80
2021/12/20 07:19:30;;;;;;;11.90;1.40;;;;;;;;;;5061141;28;20024;-81
2021/12/20 07:21:56;;;;;;;16.00;1.63;;;;;;;;;;5059443;28;20009;-80
2021/12/20 07:24:21;;;;;;;31.80;2.33;;;;;;;;;;5053477;28;20028;-81
2021/12/20 07:26:46;;;;;;;17.27;2.00;;;;;;;;;;5054086;28;20032;-81
2021/12/20 07:29:11;;;;;;;20.40;1.83;;;;;;;;;;5064663;28;20023;-80
2021/12/20 07:31:38;;;;;;;14.60;1.80;;;;;;;;;;5060722;28;20480;-81
2021/12/20 07:34:04;;;;;;;13.73;1.57;;;;;;;;;;5055688;28;20020;-80
2021/12/20 07:36:29;;;;;;;12.97;1.40;;;;;;;;;;5063550;28;20032;-81
2021/12/20 07:38:55;;;;;;;17.33;1.93;;;;;;;;;;5052305;28;20017;-79
2021/12/20 07:41:21;;;;;;;18.30;2.00;;;;;;;;;;5054313;28;20025;-80
2021/12/20 07:43:47;;;;;;;14.27;1.50;;;;;;;;;;5052780;28;20502;-80
2021/12/20 07:46:12;;;;;;;16.33;1.73;;;;;;;;;;5052309;28;20109;-80
2021/12/20 07:48:38;;;;;;;17.70;1.90;;;;;;;;;;5054517;28;20033;-80
2021/12/20 07:51:04;;;;;;;18.47;2.20;;;;;;;;;;5056970;28;20043;-81
2021/12/20 07:53:29;;;;;;;15.33;1.93;;;;;;;;;;5059165;28;20028;-80
2021/12/20 07:55:55;;;;;;;14.00;1.83;;;;;;;;;;5062786;28;20020;-80
2021/12/20 07:58:20;;;;;;;16.37;1.80;;;;;;;;;;5081524;28;20029;-81
2021/12/20 08:00:46;;;;;;;14.37;1.67;;;;;;;;;;5060886;28;20031;-81
2021/12/20 08:03:12;;;;;;;17.70;1.93;;;;;;;;;;5061203;28;20576;-81
2021/12/20 08:05:37;;;;;;;18.10;1.60;;;;;;;;;;5055039;28;20024;-80
2021/12/20 08:08:02;;;;;;;11.37;1.80;;;;;;;;;;5081279;28;20022;-81
2021/12/20 08:10:28;;;;;;;24.17;2.33;;;;;;;;;;5055317;28;20021;-80
2021/12/20 08:12:53;;;;;;;10.67;1.57;;;;;;;;;;5052674;28;20009;-80
2021/12/20 08:15:19;;;;;;;14.10;1.70;;;;;;;;;;5059907;28;20110;-81
2021/12/20 08:17:44;;;;;;;22.93;1.90;;;;;;;;;;5054975;28;20017;-81
2021/12/20 08:20:10;;;;;;;13.73;1.60;;;;;;;;;;5086401;28;20082;-81
2021/12/20 08:22:36;;;;;;;23.50;2.33;;;;;;;;;;5086032;28;20021;-80
2021/12/20 08:25:01;;;;;;;17.67;1.83;;;;;;;;;;5085781;28;20028;-81
2021/12/20 08:27:27;;;;;;;21.23;2.83;;;;;;;;;;5059490;28;20017;-80
2021/12/20 08:29:52;;;;;;;21.00;2.50;;;;;;;;;;5053554;28;20027;-80
2021/12/20 08:32:17;;;;;;;16.77;1.93;;;;;;;;;;5055187;28;20016;-80
2021/12/20 08:34:42;;;;;;;20.03;1.80;;;;;;;;;;5070346;28;20368;-81
2021/12/20 08:37:08;;;;;;;30.37;3.33;;;;;;;;;;5068471;28;20533;-80
2021/12/20 08:39:34;;;;;;;18.63;2.40;;;;;;;;;;5054810;28;20396;-81
2021/12/20 08:41:59;;;;;;;15.60;2.33;;;;;;;;;;5081922;28;20018;-80
2021/12/20 08:44:25;;;;;;;12.97;1.87;;;;;;;;;;5047438;28;20023;-80
2021/12/20 08:46:51;;;;;;;17.87;1.80;;;;;;;;;;5052021;28;20025;-80
2021/12/20 08:49:16;;;;;;;13.03;1.50;;;;;;;;;;5063877;28;20016;-80
2021/12/20 08:51:42;;;;;;;16.50;2.20;;;;;;;;;;5059435;28;20025;-81
2021/12/20 08:54:07;;;;;;;14.23;1.87;;;;;;;;;;5080696;28;20021;-80
2021/12/20 08:56:32;;;;;;;18.53;2.37;;;;;;;;;;5055660;28;20032;-80
2021/12/20 08:58:58;;;;;;;17.93;2.33;;;;;;;;;;5059507;28;20044;-80
2021/12/20 09:01:23;;;;;;;15.37;2.10;;;;;;;;;;5055515;28;20119;-81
2021/12/20 09:03:48;;;;;;;19.57;3.43;;;;;;;;;;5081915;28;20461;-81
2021/12/20 09:06:14;;;;;;;11.20;2.50;;;;;;;;;;5061344;28;20471;-80
2021/12/20 09:08:40;;;;;;;25.13;4.07;;;;;;;;;;5082660;28;20066;-80
2021/12/20 09:11:06;;;;;;;21.90;5.47;;;;;;;;;;5053498;28;20021;-81
2021/12/20 09:13:31;;;;;;;31.17;3.80;;;;;;;;;;5057028;28;20392;-80
2021/12/20 09:15:59;;;;;;;29.87;4.10;;;;;;;;;;5081182;28;20020;-80
2021/12/20 09:18:25;;;;;;;14.70;2.70;;;;;;;;;;5062347;28;20542;-81
2021/12/20 09:20:51;;;;;;;18.43;2.97;;;;;;;;;;5053841;28;20025;-81
2021/12/20 09:23:17;;;;;;;19.67;2.43;;;;;;;;;;5052701;28;20009;-81
2021/12/20 09:25:46;;;;;;;17.83;2.37;;;;;;;;;;5058965;28;20083;-80
2021/12/20 09:28:12;;;;;;;13.77;1.90;;;;;;;;;;5052958;28;20028;-80
2021/12/20 09:30:38;;;;;;;15.93;1.50;;;;;;;;;;5066508;28;20389;-81
2021/12/20 09:33:04;;;;;;;7.40;1.50;;;;;;;;;;5062595;28;20468;-80
2021/12/20 09:35:30;;;;;;;15.83;1.80;;;;;;;;;;5054386;28;20095;-81
2021/12/20 09:37:55;;;;;;;14.70;1.40;;;;;;;;;;5057358;28;20526;-80
2021/12/20 09:40:32;;;;;;;11.90;1.97;;;;;;;;;;5059614;28;20036;-81
2021/12/20 09:42:59;;;;;;;16.47;2.33;;;;;;;;;;5084837;28;20016;-81
2021/12/20 09:45:24;;;;;;;12.40;2.07;;;;;;;;;;5052609;28;20017;-81
2021/12/20 09:47:50;;;;;;;14.27;2.47;;;;;;;;;;5052477;28;20094;-81
2021/12/20 09:50:16;;;;;;;12.10;1.73;;;;;;;;;;5060288;28;20418;-81
2021/12/20 09:52:41;;;;;;;22.60;2.37;;;;;;;;;;5052778;28;20495;-81
2021/12/20 09:55:07;;;;;;;16.63;1.73;;;;;;;;;;5059241;28;20016;-81
2021/12/20 09:57:33;;;;;;;14.10;2.20;;;;;;;;;;5053675;28;20118;-81
2021/12/20 10:00:00;;;;;;;18.37;2.47;;;;;;;;;;5055690;28;20103;-81
2021/12/20 10:02:25;;;;;;;14.13;2.13;;;;;;;;;;5054954;28;20009;-81
2021/12/20 10:04:53;;;;;;;17.27;2.30;;;;;;;;;;5052415;28;20017;-81
2021/12/20 10:07:23;;;;;;;25.47;2.20;;;;;;;;;;5051333;28;20017;-81
2021/12/20 10:09:48;;;;;;;21.23;2.30;;;;;;;;;;5084234;28;20375;-80
2021/12/20 10:12:14;;;;;;;7.90;1.57;;;;;;;;;;5051404;28;20032;-80
2021/12/20 10:15:00;;;;;;;14.00;2.23;;;;;;;;;;5058602;28;20036;-80
2021/12/20 10:17:26;;;;;;;13.23;1.67;;;;;;;;;;5083827;28;20017;-81
2021/12/20 10:19:52;;;;;;;24.77;2.60;;;;;;;;;;5085531;28;20540;-81
2021/12/20 10:22:28;;;;;;;18.03;2.10;;;;;;;;;;5063026;28;20104;-81
2021/12/20 10:24:53;;;;;;;17.60;2.07;;;;;;;;;;5059743;28;20028;-81
2021/12/20 10:27:28;;;;;;;16.80;2.60;;;;;;;;;;5086364;28;20029;-80
2021/12/20 10:29:53;;;;;;;11.37;1.97;;;;;;;;;;5059200;28;20107;-81
2021/12/20 10:32:51;;;;;;;15.93;1.80;;;;;;;;;;5050771;28;20107;-82
2021/12/20 10:35:25;;;;;;;10.03;2.10;;;;;;;;;;5041933;28;20036;-81
2021/12/20 10:37:54;;;;;;;11.25;1.75;;;;;;;;;;5061059;28;20054;-81
2021/12/20 10:40:19;;;;;;;8.87;1.50;;;;;;;;;;5059580;28;20469;-81
2021/12/20 10:42:45;;;;;;;17.80;1.87;;;;;;;;;;5065614;28;20081;-81
2021/12/20 10:45:14;;;;;;;10.20;1.67;;;;;;;;;;5051256;28;20032;-81
2021/12/20 10:47:41;;;;;;;14.63;1.95;;;;;;;;;;5051695;28;20021;-81
2021/12/20 10:50:24;;;;;;;13.82;1.67;;;;;;;;;;5083647;28;20048;-81
2021/12/20 10:52:50;;;;;;;19.40;2.67;;;;;;;;;;5076147;28;20021;-80
2021/12/20 10:55:34;;;;;;;17.70;2.63;;;;;;;;;;5051792;28;20017;-80
2021/12/20 10:58:35;;;;;;;13.00;2.50;;;;;;;;;;5061347;28;20028;-81
2021/12/20 11:01:01;;;;;;;19.67;2.20;;;;;;;;;;5023481;28;20111;-81
2021/12/20 11:03:29;;;;;;;13.87;2.20;;;;;;;;;;5050552;28;20033;-81
2021/12/20 11:09:08;;;;;;;7.87;1.60;;;;;;;;;;5061475;28;20388;-81
2021/12/20 11:11:39;;;;;;;16.90;2.37;;;;;;;;;;5092480;28;20058;-81
2021/12/20 11:14:05;;;;;;;19.33;2.42;;;;;;;;;;5063811;28;20131;-81
2021/12/20 11:16:30;;;;;;;9.40;2.17;;;;;;;;;;5084764;28;20025;-81
2021/12/20 11:19:14;;;;;;;13.03;1.80;;;;;;;;;;5069642;28;20024;-80
2021/12/20 11:21:46;;;;;;;13.77;2.00;;;;;;;;;;5060318;28;20384;-80
2021/12/20 11:24:15;;;;;;;13.53;2.60;;;;;;;;;;5063067;28;20020;-81
2021/12/20 11:26:41;;;;;;;11.57;2.00;;;;;;;;;;5064143;28;20051;-81
2021/12/20 11:29:06;;;;;;;14.43;1.70;;;;;;;;;;5064270;28;20025;-80
2021/12/20 11:31:32;;;;;;;15.00;2.37;;;;;;;;;;5061380;28;20025;-80
2021/12/20 11:33:59;;;;;;;19.50;2.07;;;;;;;;;;5062830;28;20025;-81
2021/12/20 11:36:24;;;;;;;14.10;2.33;;;;;;;;;;5053729;28;20024;-80
2021/12/20 11:38:49;;;;;;;14.93;3.93;;;;;;;;;;5061699;28;20025;-80
2021/12/20 11:41:14;;;;;;;12.13;2.50;;;;;;;;;;5064604;28;20100;-81
2021/12/20 11:43:40;;;;;;;16.97;2.17;;;;;;;;;;5058672;28;20089;-81
2021/12/20 11:46:07;;;;;;;8.50;1.80;;;;;;;;;;5062623;28;20633;-81
2021/12/20 11:48:33;;;;;;;13.80;1.50;;;;;;;;;;5059260;28;20362;-81
2021/12/20 11:50:59;;;;;;;14.30;1.93;;;;;;;;;;5086775;28;20119;-80
2021/12/20 11:53:24;;;;;;;19.70;2.00;;;;;;;;;;5061472;28;20904;-81
2021/12/20 11:55:51;;;;;;;10.70;1.30;;;;;;;;;;5052260;28;20033;-81
2021/12/20 11:58:24;;;;;;;12.65;2.17;;;;;;;;;;5060920;28;20028;-81
2021/12/20 12:00:49;;;;;;;;;;;;;;;;;;5062797;28;20048;-81
2021/12/20 12:03:14;;;;;;;16.58;2.28;;;;;;;;;;5060269;28;20280;-81
2021/12/20 12:05:39;;;;;;;16.40;1.93;;;;;;;;;;5062544;28;20262;-80
2021/12/20 12:08:20;;;;;;;12.07;1.20;;;;;;;;;;5078374;28;20451;-81
2021/12/20 12:10:45;;;;;;;14.68;1.67;;;;;;;;;;5036709;28;20083;-81
2021/12/20 12:13:15;;;;;;;14.88;2.08;;;;;;;;;;5071026;28;20021;-81
2021/12/20 12:15:59;;;;;;;10.60;1.63;;;;;;;;;;5045237;28;20051;-82
2021/12/20 12:18:44;;;;;;;12.45;2.45;;;;;;;;;;5055499;28;20017;-81
2021/12/20 12:21:29;;;;;;;21.95;4.28;;;;;;;;;;5079227;28;20024;-83
2021/12/20 12:23:54;;;;;;;15.05;2.22;;;;;;;;;;5079502;28;20025;-81
2021/12/20 12:26:28;;;;;;;13.70;2.20;;;;;;;;;;5054153;28;20027;-81
2021/12/20 12:28:55;;;;;;;17.08;2.00;;;;;;;;;;5076954;28;20079;-82
2021/12/20 12:31:20;;;;;;;10.38;2.08;;;;;;;;;;5052208;28;20027;-82
2021/12/20 12:33:46;;;;;;;7.80;1.52;;;;;;;;;;5081493;28;20021;-81
2021/12/20 12:36:22;;;;;;;13.60;1.60;;;;;;;;;;5052270;28;20039;-81
2021/12/20 12:38:47;;;;;;;9.00;1.40;;;;;;;;;;5068549;28;20023;-81
2021/12/20 12:41:20;;;;;;;14.23;1.65;;;;;;;;;;5052316;28;20020;-81
2021/12/20 12:43:52;;;;;;;11.85;1.75;;;;;;;;;;5059282;28;20017;-82
2021/12/20 12:46:36;;;;;;;11.15;1.73;;;;;;;;;;5049284;28;20017;-82
2021/12/20 12:49:20;;;;;;;7.80;1.25;;;;;;;;;;5054638;28;20052;-82
2021/12/20 12:51:45;;;;;;;8.85;1.60;;;;;;;;;;5055346;28;20393;-81
2021/12/20 12:54:30;;;;;;;16.83;1.63;;;;;;;;;;5057849;28;20028;-81
2021/12/20 12:57:15;;;;;;;16.57;1.60;;;;;;;;;;5077339;28;20388;-81
2021/12/20 12:59:47;;;;;;;15.43;1.47;;;;;;;;;;5083185;28;20031;-81
2021/12/20 13:02:20;;;;;;;19.70;1.77;;;;;;;;;;5083927;28;20023;-81
2021/12/20 13:04:49;;;;;;;20.10;2.00;;;;;;;;;;5051710;28;20036;-81
2021/12/20 13:07:18;;;;;;;7.77;1.33;;;;;;;;;;5085191;28;20041;-81
2021/12/20 13:09:45;;;;;;;10.32;1.23;;;;;;;;;;5052748;28;20035;-81
2021/12/20 13:12:14;;;;;;;11.50;1.67;;;;;;;;;;5055278;28;20028;-81
2021/12/20 13:15:04;;;;;;;9.87;1.50;;;;;;;;;;5056708;28;20029;-80
2021/12/20 13:17:35;;;;;;;12.87;1.80;;;;;;;;;;5080141;28;20077;-81
2021/12/20 13:20:12;;;;;;;11.30;1.57;;;;;;;;;;5080617;28;20017;-81
2021/12/20 13:22:37;;;;;;;10.93;1.73;;;;;;;;;;5082385;28;20028;-81
2021/12/20 13:25:04;;;;;;;9.13;1.20;;;;;;;;;;5053878;28;20025;-81
2021/12/20 13:27:30;;;;;;;7.97;1.50;;;;;;;;;;5085407;28;20503;-81
2021/12/20 13:29:55;;;;;;;19.53;1.67;;;;;;;;;;5057419;28;20025;-81
2021/12/20 13:32:20;;;;;;;10.33;1.50;;;;;;;;;;5055863;28;20436;-81
2021/12/20 13:34:45;;;;;;;9.82;1.65;;;;;;;;;;5084023;28;20044;-82
2021/12/20 13:37:12;;;;;;;14.55;1.55;;;;;;;;;;5052910;28;20025;-81
2021/12/20 13:39:38;;;;;;;7.50;1.50;;;;;;;;;;5052782;28;20448;-81
2021/12/20 13:42:07;;;;;;;6.72;1.45;;;;;;;;;;5057601;28;20052;-82
2021/12/20 13:44:33;;;;;;;9.27;1.27;;;;;;;;;;5049836;28;20036;-81
2021/12/20 13:47:02;;;;;;;10.77;1.40;;;;;;;;;;5089090;28;20035;-82
2021/12/20 13:49:27;;;;;;;11.60;1.38;;;;;;;;;;5050760;28;20036;-82
2021/12/20 13:51:54;;;;;;;16.63;1.90;;;;;;;;;;5049712;28;20021;-82
2021/12/20 13:54:19;;;;;;;14.88;2.17;;;;;;;;;;5082586;28;20025;-82
2021/12/20 13:56:49;;;;;;;16.00;1.67;;;;;;;;;;5058059;28;20029;-82
2021/12/20 13:59:15;;;;;;;12.95;1.45;;;;;;;;;;5083859;28;20025;-82
2021/12/20 14:01:40;;;;;;;11.57;1.95;;;;;;;;;;5073442;28;20258;-81
2021/12/20 14:04:05;;;;;;;13.85;2.40;;;;;;;;;;5051299;28;20032;-81
2021/12/20 14:06:35;;;;;;;9.32;1.30;;;;;;;;;;5051847;28;20025;-81
2021/12/20 14:09:21;;;;;;;11.75;1.60;;;;;;;;;;5054997;28;20105;-82
2021/12/20 14:11:47;;;;;;;14.85;1.40;;;;;;;;;;5084377;28;20160;-82
2021/12/20 14:14:12;;;;;;;15.00;1.52;;;;;;;;;;5050295;28;20117;-80
2021/12/20 14:16:56;;;;;;;10.43;1.47;;;;;;;;;;5047667;28;20035;-82
2021/12/20 14:19:42;;;;;;;11.00;1.17;;;;;;;;;;5046280;28;20021;-80
2021/12/20 14:22:07;;;;;;;13.35;1.58;;;;;;;;;;5083791;28;20112;-82
2021/12/20 14:24:38;;;;;;;11.63;1.35;;;;;;;;;;5048742;28;20515;-83
2021/12/20 14:27:04;;;;;;;11.43;1.40;;;;;;;;;;5080938;28;20107;-82
2021/12/20 14:29:32;;;;;;;8.23;1.25;;;;;;;;;;5079652;28;20136;-81
2021/12/20 14:32:00;;;;;;;9.13;1.67;;;;;;;;;;5069065;28;20040;-81
2021/12/20 14:34:34;;;;;;;13.68;1.70;;;;;;;;;;5062224;28;20024;-81
2021/12/20 14:37:11;;;;;;;15.60;2.13;;;;;;;;;;5086544;28;20417;-81
2021/12/20 14:39:41;;;;;;;18.35;2.28;;;;;;;;;;5086778;28;20476;-80
2021/12/20 14:42:06;;;;;;;7.63;1.77;;;;;;;;;;5053414;28;20032;-80